Impacts TAF Board INFO
FOR SITUATIONAL AWARENESS. NOT TO BE USED FOR FLIGHT PLANNING PURPOSES.
IDs:

KTPA - Tampa Intl Arpt, FL, US

Issued at 1130 UTC 24 Feb 2018
Updated at 1209 UTC 24 Feb 2018
Potential Impact None Slight Moderate High
Time1153Z 24/13Z 24/14Z 24/15Z 24/16Z 24/17Z 24/18Z 24/19Z 24/20Z 24/21Z 24/22Z 24/23Z 25/00Z 25/01Z>>
Type OBS PRVL PRVL PRVL PRVL PRVL PRVL PRVL PRVL PRVL PRVL PRVL PRVL PRVL
VIS 10 >6 >6 >6 >6 >6 >6 >6 >6 >6 >6 >6 >6 >6
CIG -- -- -- -- -- -- -- -- 50 50 50 50 50 50
Cover FEW FEW SCT SCT SCT SCT SCT SCT BKN BKN BKN BKN BKN BKN
FltCat VFR VFR VFR VFR VFR VFR VFR VFR VFR VFR VFR VFR VFR VFR
WX -- -- -- -- -- -- -- -- -- -- -- -- -- --
WDir VRB 100 130 130 130 130 130 130 250 250 250 250 250 250
WSpd 0 4 7 7 7 7 7 7 8 8 8 8 8 8
WGst -- -- -- -- -- -- -- -- -- -- -- -- -- --

Raw TAF
KTPA 241130Z 2412/2518 10004KT P6SM FEW015
  FM241400 13007KT P6SM SCT025
  FM242000 25008KT P6SM SCT030 BKN050
  FM250200 15005KT P6SM SCT060
  FM250900 12003KT 6SM BR FEW015 FEW060
  FM251400 15006KT P6SM SCT020 SCT060


Raw METAR
KTPA 241153Z 00000KT 10SM FEW060 20/18 A3023 RMK AO2 SLP235 T02000183 10222 20200 53003
KTPA 241053Z 00000KT 10SM CLR 21/18 A3022 RMK AO2 SLP232 T02060183

METAR Board
Radar Display
Forecast Discussion

FOR SITUATIONAL AWARENESS. NOT TO BE USED FOR FLIGHT PLANNING PURPOSES.